Terminal Aerodrome Forecast
Issued by NWS Chicago, IL

Home | Current Version | Previous Version | Graphics & Text | Print | Product List | Glossary Off
Versions: 1 2 3 4 5 6 7 8 9 10 11 12 13 14 15 16 17 18 19 20 21 22 23 24 25 26 27 28 29 30 31

000
FTUS43 KLOT 162100 AAB
TAFRFD
TAF AMD
KRFD 162158Z 1622/1718 17022G28KT P6SM SCT120 BKN250
     FM170400 16016KT P6SM BKN050 WS020/19050KT
     FM171500 23012G18KT P6SM SCT250=

USA.gov is the U.S. government's official web portal to all federal, state and local government web resources and services.